Time;durP1;ratioP1;P1;durP2;ratioP2;P2;SDS_P1;SDS_P2;PMS_P1;PMS_P2;Temp;Humidity;BMP_temperature;BMP_pressure;BME280_temperature;BME280_humidity;BME280_pressure;Samples;Min_cycle;Max_cycle;Signal;HPM_P1;HPM_P2
2023/04/12 00:01:09;;;;;;;7.78;1.80;;;;;;;11.38;47.45;99445.16;5069355;28;20067;-62
2023/04/12 00:03:38;;;;;;;4.50;1.50;;;;;;;11.39;47.03;99438.44;5066077;28;20063;-62
2023/04/12 00:06:06;;;;;;;4.57;1.60;;;;;;;11.31;47.47;99431.78;5052956;28;20053;-63
2023/04/12 00:08:36;;;;;;;4.78;1.80;;;;;;;11.43;47.58;99421.84;5056129;28;20052;-62
2023/04/12 00:11:04;;;;;;;5.40;1.45;;;;;;;11.33;47.89;99420.28;5057103;28;20056;-62
2023/04/12 00:13:33;;;;;;;5.78;1.30;;;;;;;11.36;48.09;99406.50;5053159;28;20368;-62
2023/04/12 00:16:02;;;;;;;7.65;1.80;;;;;;;11.29;47.86;99385.91;5052255;28;20423;-62
2023/04/12 00:18:32;;;;;;;5.50;1.77;;;;;;;11.35;48.05;99399.28;5051998;28;20056;-62
2023/04/12 00:21:01;;;;;;;4.15;1.65;;;;;;;11.36;48.12;99400.91;5051960;28;20049;-62
2023/04/12 00:23:28;;;;;;;4.78;1.70;;;;;;;11.38;48.04;99401.38;5056920;28;20047;-62
2023/04/12 00:25:56;;;;;;;5.15;2.40;;;;;;;11.34;48.02;99394.06;5067872;28;20054;-62
2023/04/12 00:28:23;;;;;;;4.35;1.60;;;;;;;11.31;48.41;99395.53;5070848;28;20071;-62
2023/04/12 00:30:51;;;;;;;3.92;1.30;;;;;;;11.41;48.38;99390.69;5067330;28;20060;-63
2023/04/12 00:33:20;;;;;;;7.50;1.80;;;;;;;11.45;48.42;99381.28;5052160;28;20072;-62
2023/04/12 00:35:50;;;;;;;4.47;1.40;;;;;;;11.45;48.56;99374.91;5052398;28;20048;-62
2023/04/12 00:38:19;;;;;;;5.50;1.83;;;;;;;11.48;47.84;99379.78;5054400;28;20049;-62
2023/04/12 00:40:46;;;;;;;5.88;1.52;;;;;;;11.51;48.34;99370.72;5055403;28;20056;-62
2023/04/12 00:43:17;;;;;;;6.97;2.15;;;;;;;11.46;48.98;99368.97;5071758;28;20063;-62
2023/04/12 00:45:48;;;;;;;7.95;1.92;;;;;;;11.35;49.49;99385.34;5066355;28;20049;-62
2023/04/12 00:48:16;;;;;;;5.00;2.00;;;;;;;11.37;49.07;99362.69;5052155;28;20055;-62
2023/04/12 00:50:46;;;;;;;5.55;1.70;;;;;;;11.41;49.15;99366.41;5057512;28;20063;-62
2023/04/12 00:53:16;;;;;;;6.03;1.85;;;;;;;11.48;49.33;99354.69;5064597;28;20049;-62
2023/04/12 00:55:45;;;;;;;6.30;1.65;;;;;;;11.35;49.85;99346.31;5052736;28;20059;-62
2023/04/12 00:58:14;;;;;;;6.20;1.80;;;;;;;11.33;49.25;99356.97;5059038;28;20056;-63
2023/04/12 01:00:43;;;;;;;5.68;1.77;;;;;;;11.27;49.49;99355.59;5065870;28;20060;-63
2023/04/12 01:03:21;;;;;;;6.50;1.75;;;;;;;11.29;49.44;99353.25;5052400;28;20044;-62
2023/04/12 01:06:04;;;;;;;4.32;1.77;;;;;;;11.31;50.08;99353.72;5054483;28;20060;-62
2023/04/12 01:08:42;;;;;;;5.82;2.13;;;;;;;11.23;50.79;99345.47;5053449;28;20052;-62
2023/04/12 01:11:22;;;;;;;4.80;2.05;;;;;;;11.14;51.07;99357.53;5052983;28;20060;-62
2023/04/12 01:13:52;;;;;;;;;;;;;;;11.20;51.29;99348.97;5052112;28;20408;-62
2023/04/12 01:16:28;;;;;;;5.13;1.77;;;;;;;11.09;51.43;99345.81;5053900;28;20390;-62
2023/04/12 01:19:02;;;;;;;4.60;1.60;;;;;;;11.05;52.18;99344.88;5051619;28;20063;-62
2023/04/12 01:21:47;;;;;;;4.97;1.63;;;;;;;11.00;52.95;99331.16;5064333;28;20055;-63
2023/04/12 01:24:27;;;;;;;6.32;1.63;;;;;;;10.99;52.86;99327.56;5055849;28;20053;-62
2023/04/12 01:26:59;;;;;;;6.40;1.83;;;;;;;10.92;53.10;99307.81;5063480;28;20060;-62
2023/04/12 01:29:30;;;;;;;5.57;1.90;;;;;;;10.89;53.72;99298.16;5057352;28;20500;-62
2023/04/12 01:32:03;;;;;;;3.80;1.73;;;;;;;10.87;53.45;99302.47;5068883;28;20518;-62
2023/04/12 01:34:37;;;;;;;3.70;1.60;;;;;;;10.79;53.79;99301.38;5070690;28;20057;-63
2023/04/12 01:37:06;;;;;;;4.55;1.40;;;;;;;10.64;54.60;99304.84;5075887;28;20418;-63
2023/04/12 01:39:34;;;;;;;6.38;1.50;;;;;;;10.71;54.69;99289.22;5060839;28;20045;-62
2023/04/12 01:42:05;;;;;;;4.60;1.70;;;;;;;10.69;54.98;99279.56;5071380;28;20056;-62
2023/04/12 01:44:34;;;;;;;6.38;1.48;;;;;;;10.78;55.44;99277.50;5074426;28;20398;-62
2023/04/12 01:47:05;;;;;;;5.28;1.48;;;;;;;10.67;56.12;99281.91;5073809;28;20044;-63
2023/04/12 01:49:42;;;;;;;4.63;1.77;;;;;;;10.63;55.60;99269.81;5073312;28;20063;-62
2023/04/12 01:52:19;;;;;;;4.90;1.55;;;;;;;10.68;55.81;99277.94;5055019;28;20057;-62
2023/04/12 01:54:51;;;;;;;3.70;1.23;;;;;;;10.76;56.89;99261.13;5053939;28;20048;-63
2023/04/12 01:57:20;;;;;;;5.35;1.50;;;;;;;10.65;57.10;99253.56;5059850;28;20498;-62
2023/04/12 01:59:51;;;;;;;5.93;1.45;;;;;;;10.75;56.25;99259.50;5056261;28;20060;-62
2023/04/12 02:02:19;;;;;;;5.68;2.22;;;;;;;10.46;57.41;99248.53;5056279;28;20055;-62
2023/04/12 02:04:47;;;;;;;6.07;1.67;;;;;;;10.40;58.67;99236.81;5055808;28;20048;-62
2023/04/12 02:07:17;;;;;;;5.20;2.03;;;;;;;10.43;58.05;99252.00;5055278;28;20064;-62
2023/04/12 02:09:45;;;;;;;;;;;;;;;10.34;58.92;99224.25;5055135;28;20057;-62
2023/04/12 02:12:12;;;;;;;3.13;1.50;;;;;;;10.38;59.16;99219.63;5054971;28;19921;-63
2023/04/12 02:14:40;;;;;;;4.28;1.63;;;;;;;10.36;59.00;99217.19;5066583;28;20064;-62
2023/04/12 02:17:11;;;;;;;5.65;1.95;;;;;;;10.11;59.36;99204.31;5073686;28;20056;-63
2023/04/12 02:19:39;;;;;;;5.30;1.88;;;;;;;10.10;60.48;99203.53;5073731;28;20060;-62
2023/04/12 02:22:07;;;;;;;8.27;1.80;;;;;;;10.10;60.76;99197.97;5055112;28;20053;-63
2023/04/12 02:24:34;;;;;;;6.25;1.70;;;;;;;9.97;61.26;99193.47;5053635;28;20049;-62
2023/04/12 02:27:02;;;;;;;5.32;1.40;;;;;;;10.06;61.41;99185.06;5067400;28;20051;-62
2023/04/12 02:29:30;;;;;;;4.45;1.48;;;;;;;10.10;60.38;99175.69;5059819;28;20482;-64
2023/04/12 02:31:58;;;;;;;5.35;1.45;;;;;;;10.03;61.56;99169.06;5058376;28;20056;-59
2023/04/12 02:34:30;;;;;;;3.28;1.35;;;;;;;10.04;61.99;99154.81;5054561;28;20076;-59
2023/04/12 02:36:57;;;;;;;5.43;1.40;;;;;;;10.06;61.89;99157.25;5069298;28;20098;-59
2023/04/12 02:39:30;;;;;;;5.63;1.35;;;;;;;10.04;61.65;99154.81;5069884;28;20054;-59
2023/04/12 02:41:58;;;;;;;3.63;1.50;;;;;;;10.12;61.47;99140.00;5070891;28;20445;-59
2023/04/12 02:44:29;;;;;;;3.85;1.73;;;;;;;9.94;61.67;99138.56;5062426;28;20052;-60
2023/04/12 02:46:57;;;;;;;6.20;1.85;;;;;;;9.88;61.85;99134.34;5060407;28;20400;-61
2023/04/12 02:49:26;;;;;;;5.22;1.60;;;;;;;10.00;62.75;99147.50;5054609;28;20049;-61
2023/04/12 02:51:56;;;;;;;7.73;1.90;;;;;;;10.03;62.75;99144.00;5054513;28;20066;-61
2023/04/12 02:54:26;;;;;;;6.72;1.88;;;;;;;10.04;62.24;99129.78;5056416;28;20498;-61
2023/04/12 02:56:53;;;;;;;;;;;;;;;9.96;62.88;99120.34;5064675;28;20053;-60
2023/04/12 02:59:21;;;;;;;5.20;1.80;;;;;;;9.93;61.76;99123.84;5057097;28;19921;-61
2023/04/12 03:01:49;;;;;;;3.72;1.25;;;;;;;9.90;61.89;99107.00;5067450;28;20048;-61
2023/04/12 03:04:17;;;;;;;6.10;1.58;;;;;;;10.01;62.91;99108.19;5072398;28;20041;-61
2023/04/12 03:06:52;;;;;;;3.88;1.50;;;;;;;9.93;62.72;99089.63;5073956;28;20048;-61
2023/04/12 03:09:20;;;;;;;7.00;2.28;;;;;;;9.86;63.56;99090.19;5060838;28;20048;-60
2023/04/12 03:11:48;;;;;;;4.05;1.38;;;;;;;9.77;63.69;99083.91;5055096;28;20048;-60
2023/04/12 03:14:16;;;;;;;4.25;1.48;;;;;;;9.85;63.35;99060.78;5061202;28;20044;-60
2023/04/12 03:16:43;;;;;;;4.70;1.42;;;;;;;9.81;63.30;99067.38;5071371;28;20067;-60
2023/04/12 03:19:13;;;;;;;4.38;1.48;;;;;;;9.88;63.54;99056.47;5073842;28;20056;-60
2023/04/12 03:21:41;;;;;;;7.00;1.75;;;;;;;9.81;62.47;99053.47;5059629;28;20072;-61
2023/04/12 03:24:10;;;;;;;3.13;1.40;;;;;;;9.74;62.98;99052.06;5055899;28;20045;-60
2023/04/12 03:26:38;;;;;;;3.90;1.40;;;;;;;9.66;63.21;99052.97;5064475;28;20055;-60
2023/04/12 03:29:08;;;;;;;3.95;1.25;;;;;;;9.71;64.03;99040.81;5072544;28;20494;-60
2023/04/12 03:31:36;;;;;;;3.40;1.48;;;;;;;9.69;62.42;99032.00;5070667;28;20060;-61
2023/04/12 03:34:03;;;;;;;4.30;1.42;;;;;;;9.73;63.11;99027.38;5069984;28;20056;-61
2023/04/12 03:36:30;;;;;;;3.60;1.20;;;;;;;9.63;63.10;99013.91;5058344;28;20071;-61
2023/04/12 03:38:57;;;;;;;4.43;1.33;;;;;;;9.62;64.07;98995.63;5057354;28;20052;-60
2023/04/12 03:41:26;;;;;;;4.15;1.60;;;;;;;9.63;62.97;98989.69;5069302;28;20059;-60
2023/04/12 03:43:57;;;;;;;4.97;1.60;;;;;;;9.58;63.86;98984.38;5071329;28;20044;-60
2023/04/12 03:46:30;;;;;;;4.75;1.30;;;;;;;9.71;63.82;98997.13;5062580;28;20420;-61
2023/04/12 03:48:57;;;;;;;2.95;1.40;;;;;;;9.67;63.17;98970.38;5070927;28;20057;-61
2023/04/12 03:51:25;;;;;;;4.00;1.23;;;;;;;9.80;62.96;98968.41;5066214;28;20076;-61
2023/04/12 03:53:53;;;;;;;3.10;1.30;;;;;;;9.83;63.20;98962.16;5071719;28;20044;-61
2023/04/12 03:56:20;;;;;;;3.17;1.30;;;;;;;9.78;62.71;98973.50;5060751;28;20056;-61
2023/04/12 03:58:52;;;;;;;3.78;1.48;;;;;;;9.81;62.08;98943.03;5062350;28;20059;-60
2023/04/12 04:01:20;;;;;;;2.80;1.33;;;;;;;9.74;61.80;98943.63;5062660;28;20446;-61
2023/04/12 04:03:47;;;;;;;3.50;1.55;;;;;;;9.71;63.15;98935.16;5071203;28;20399;-60
2023/04/12 04:06:18;;;;;;;3.85;1.40;;;;;;;9.81;62.28;98936.69;5072023;28;20053;-60
2023/04/12 04:08:45;;;;;;;3.88;1.58;;;;;;;9.81;62.48;98939.44;5067782;28;20057;-61
2023/04/12 04:11:13;;;;;;;3.35;1.65;;;;;;;9.83;63.06;98943.50;5067568;28;20418;-60
2023/04/12 04:13:40;;;;;;;3.38;1.20;;;;;;;9.78;62.40;98923.44;5071134;28;20048;-60
2023/04/12 04:16:10;;;;;;;3.47;1.33;;;;;;;9.87;63.09;98910.22;5070123;28;20408;-60
2023/04/12 04:18:37;;;;;;;2.58;1.30;;;;;;;9.91;62.86;98900.88;5064378;28;20053;-61
2023/04/12 04:21:10;;;;;;;4.82;1.55;;;;;;;9.80;61.85;98898.88;5052632;28;20515;-61
2023/04/12 04:23:38;;;;;;;2.70;1.50;;;;;;;9.85;62.76;98895.84;5053793;28;20056;-59
2023/04/12 04:26:09;;;;;;;3.78;1.48;;;;;;;9.78;62.22;98892.88;5054616;28;20044;-60
2023/04/12 04:28:37;;;;;;;2.53;1.02;;;;;;;9.72;63.81;98898.66;5064942;28;20052;-60
2023/04/12 04:31:05;;;;;;;2.95;1.30;;;;;;;9.78;63.88;98901.19;5059533;28;20056;-59
2023/04/12 04:33:34;;;;;;;2.22;1.20;;;;;;;9.69;63.98;98885.44;5066658;28;20053;-59
2023/04/12 04:36:03;;;;;;;2.10;1.10;;;;;;;9.63;64.20;98883.25;5064283;28;20490;-59
2023/04/12 04:38:31;;;;;;;2.00;1.60;;;;;;;9.62;63.99;98871.31;5062171;28;20061;-59
2023/04/12 04:40:58;;;;;;;3.83;1.25;;;;;;;9.66;64.19;98850.00;5064342;28;20048;-59
2023/04/12 04:43:29;;;;;;;2.42;1.20;;;;;;;9.74;63.71;98851.88;5072176;28;20059;-59
2023/04/12 04:45:56;;;;;;;1.92;1.10;;;;;;;9.70;63.16;98837.03;5063025;28;20049;-59
2023/04/12 04:48:23;;;;;;;3.25;1.10;;;;;;;9.66;63.39;98844.44;5052097;28;20476;-58
2023/04/12 04:50:53;;;;;;;3.17;1.30;;;;;;;9.75;64.34;98828.44;5052240;28;20064;-59
2023/04/12 04:53:22;;;;;;;3.50;1.13;;;;;;;9.84;63.36;98835.84;5053774;28;20045;-60
2023/04/12 04:55:49;;;;;;;6.43;1.85;;;;;;;9.74;63.28;98832.41;5052446;28;20053;-59
2023/04/12 04:58:16;;;;;;;2.10;1.05;;;;;;;9.77;63.59;98828.09;5058859;28;20048;-60
2023/04/12 05:00:44;;;;;;;2.53;1.10;;;;;;;9.83;63.82;98832.28;5060553;28;20470;-59
2023/04/12 05:03:12;;;;;;;2.42;1.13;;;;;;;9.81;64.28;98829.03;5059388;28;20072;-59
2023/04/12 05:05:39;;;;;;;3.05;1.23;;;;;;;9.74;63.36;98821.28;5060392;28;20049;-59
2023/04/12 05:08:07;;;;;;;2.50;1.00;;;;;;;9.83;63.27;98826.72;5060538;28;20064;-59
2023/04/12 05:10:35;;;;;;;3.05;1.15;;;;;;;9.84;63.61;98821.94;5061847;28;20049;-59
2023/04/12 05:13:02;;;;;;;2.80;0.93;;;;;;;9.90;64.02;98809.44;5057790;28;20060;-59
2023/04/12 05:15:30;;;;;;;3.55;1.50;;;;;;;9.96;63.54;98808.84;5058254;28;20053;-59
2023/04/12 05:17:57;;;;;;;2.85;1.10;;;;;;;9.99;63.05;98803.72;5075578;28;20052;-59
2023/04/12 05:20:25;;;;;;;1.60;0.90;;;;;;;10.03;63.63;98797.09;5072005;28;20053;-59
2023/04/12 05:22:52;;;;;;;2.22;1.10;;;;;;;10.05;62.81;98805.91;5069903;28;20052;-59
2023/04/12 05:25:20;;;;;;;2.63;1.10;;;;;;;9.92;63.51;98793.19;5066961;28;20056;-59
2023/04/12 05:27:48;;;;;;;2.47;0.93;;;;;;;10.01;63.15;98785.50;5074783;28;20060;-59
2023/04/12 05:30:15;;;;;;;2.38;1.00;;;;;;;10.04;62.83;98779.25;5076028;28;20475;-59
2023/04/12 05:32:42;;;;;;;1.40;0.70;;;;;;;10.14;62.86;98777.94;5075576;28;20068;-59
2023/04/12 05:35:09;;;;;;;2.38;1.40;;;;;;;10.20;62.44;98779.31;5075823;28;20048;-59
2023/04/12 05:37:37;;;;;;;1.95;0.90;;;;;;;10.12;62.61;98772.75;5074878;28;20061;-59
2023/04/12 05:40:06;;;;;;;2.15;1.05;;;;;;;10.20;62.34;98793.22;5073468;28;20048;-59
2023/04/12 05:42:35;;;;;;;1.65;0.80;;;;;;;10.15;62.52;98771.22;5071578;28;20427;-59
2023/04/12 05:45:03;;;;;;;3.45;1.27;;;;;;;10.18;64.08;98773.28;5072224;28;20055;-59
2023/04/12 05:47:30;;;;;;;1.90;1.00;;;;;;;10.24;63.47;98765.50;5075183;28;20059;-59
2023/04/12 05:49:57;;;;;;;1.90;0.80;;;;;;;10.17;63.74;98760.56;5075171;28;20052;-59
2023/04/12 05:52:25;;;;;;;1.40;0.80;;;;;;;10.09;63.43;98758.72;5075202;28;20056;-59
2023/04/12 05:54:52;;;;;;;1.75;0.70;;;;;;;10.31;63.34;98752.66;5074735;28;20471;-59
2023/04/12 05:57:19;;;;;;;2.00;0.95;;;;;;;10.31;63.45;98751.81;5071683;28;20521;-59
2023/04/12 05:59:48;;;;;;;1.85;0.80;;;;;;;10.15;65.69;98754.53;5075166;28;20052;-60
2023/04/12 06:02:15;;;;;;;1.90;0.85;;;;;;;10.25;65.23;98759.59;5075126;28;20053;-60
2023/04/12 06:04:43;;;;;;;2.08;0.80;;;;;;;10.24;65.63;98748.81;5063385;28;20053;-59
2023/04/12 06:07:10;;;;;;;1.80;0.90;;;;;;;10.29;65.98;98745.75;5060536;28;20052;-59
2023/04/12 06:09:37;;;;;;;2.25;0.90;;;;;;;10.15;65.91;98743.41;5064763;28;20048;-60
2023/04/12 06:12:05;;;;;;;1.70;0.95;;;;;;;10.18;69.44;98739.91;5067205;28;20056;-60
2023/04/12 06:14:32;;;;;;;1.48;0.90;;;;;;;10.21;67.16;98730.06;5054529;28;20056;-59
2023/04/12 06:17:00;;;;;;;1.88;0.88;;;;;;;10.19;67.85;98726.81;5054781;28;20072;-59
2023/04/12 06:19:28;;;;;;;2.40;0.80;;;;;;;10.14;68.47;98737.03;5054927;28;20480;-59
2023/04/12 06:21:55;;;;;;;2.30;1.08;;;;;;;9.86;69.07;98725.88;5052599;28;20053;-59
2023/04/12 06:24:23;;;;;;;1.80;0.77;;;;;;;10.03;70.42;98719.22;5055396;28;20064;-62
2023/04/12 06:26:50;;;;;;;1.58;0.90;;;;;;;9.93;70.79;98712.22;5055212;28;20053;-62
2023/04/12 06:29:17;;;;;;;2.15;1.00;;;;;;;10.07;70.59;98705.41;5055495;28;20075;-62
2023/04/12 06:31:45;;;;;;;2.65;0.80;;;;;;;9.95;70.71;98736.84;5054730;28;20152;-62
2023/04/12 06:34:13;;;;;;;1.70;0.70;;;;;;;9.73;72.53;98699.28;5054902;28;20057;-63
2023/04/12 06:36:42;;;;;;;1.63;0.77;;;;;;;9.76;72.70;98701.34;5054970;28;20434;-62
2023/04/12 06:39:10;;;;;;;1.48;0.60;;;;;;;9.69;71.57;98709.50;5054679;28;20168;-62
2023/04/12 06:41:38;;;;;;;2.00;0.82;;;;;;;9.69;71.89;98704.75;5060496;28;20055;-62
2023/04/12 06:44:05;;;;;;;1.55;0.85;;;;;;;9.74;72.60;98690.59;5074529;28;20053;-66
2023/04/12 06:46:32;;;;;;;1.00;0.60;;;;;;;9.86;72.08;98686.16;5071728;28;20048;-62
2023/04/12 06:49:00;;;;;;;1.23;0.70;;;;;;;9.72;74.54;98681.81;5059940;28;20055;-62
2023/04/12 06:51:29;;;;;;;1.65;0.82;;;;;;;9.73;73.47;98672.28;5055739;28;20053;-62
2023/04/12 06:53:56;;;;;;;1.97;0.80;;;;;;;9.67;73.93;98689.56;5056201;28;20079;-62
2023/04/12 06:56:23;;;;;;;2.15;1.20;;;;;;;9.61;75.33;98669.53;5059720;28;20049;-62
2023/04/12 06:58:51;;;;;;;2.17;0.60;;;;;;;9.56;74.02;98667.03;5059924;28;20751;-63
2023/04/12 07:01:18;;;;;;;0.95;0.52;;;;;;;9.69;75.18;98659.47;5061393;28;20052;-62
2023/04/12 07:03:45;;;;;;;1.30;0.70;;;;;;;9.71;75.42;98648.78;5053327;28;20411;-62
2023/04/12 07:06:12;;;;;;;1.45;0.68;;;;;;;9.66;74.94;98641.50;5072465;28;20048;-62
2023/04/12 07:08:41;;;;;;;2.17;0.82;;;;;;;9.93;75.64;98641.84;5073734;28;20063;-62
2023/04/12 07:11:08;;;;;;;1.92;0.90;;;;;;;10.01;75.28;98638.09;5070391;28;20504;-62
2023/04/12 07:13:36;;;;;;;1.23;0.63;;;;;;;9.84;75.59;98627.31;5073699;28;20491;-62
2023/04/12 07:16:03;;;;;;;9.55;0.73;;;;;;;9.81;75.82;98630.81;5073586;28;20048;-62
2023/04/12 07:18:30;;;;;;;1.25;0.63;;;;;;;9.95;75.08;98622.81;5073349;28;20056;-62
2023/04/12 07:20:58;;;;;;;0.80;0.50;;;;;;;9.91;75.76;98611.63;5060660;28;20060;-62
2023/04/12 07:23:26;;;;;;;1.65;0.60;;;;;;;9.92;76.18;98618.00;5063333;28;20406;-61
2023/04/12 07:25:59;;;;;;;1.90;0.70;;;;;;;10.07;76.11;98608.84;5068405;28;20053;-62
2023/04/12 07:28:26;;;;;;;0.98;0.50;;;;;;;10.13;75.67;98613.00;5063726;28;21642;-61
2023/04/12 07:30:54;;;;;;;1.60;0.60;;;;;;;10.47;74.44;98599.56;5060038;28;20057;-61
2023/04/12 07:33:21;;;;;;;1.80;0.52;;;;;;;10.54;74.08;98590.59;5052964;28;20057;-61
2023/04/12 07:35:48;;;;;;;0.80;0.47;;;;;;;10.66;73.35;98592.47;5054117;28;20048;-61
2023/04/12 07:38:16;;;;;;;0.95;0.50;;;;;;;10.64;73.19;98587.25;5053455;28;20052;-61
2023/04/12 07:40:43;;;;;;;4.90;0.60;;;;;;;10.41;73.32;98578.75;5053197;28;20061;-61
2023/04/12 07:43:12;;;;;;;1.27;0.50;;;;;;;10.51;72.21;98582.97;5065021;28;20513;-61
2023/04/12 07:45:39;;;;;;;0.75;0.47;;;;;;;10.76;71.82;98578.78;5073465;28;20115;-62
2023/04/12 07:48:07;;;;;;;0.60;0.30;;;;;;;11.13;71.92;98574.84;5073440;28;20406;-61
2023/04/12 07:50:34;;;;;;;1.00;0.50;;;;;;;10.89;70.93;98576.69;5073570;28;20048;-61
2023/04/12 07:53:20;;;;;;;0.88;0.45;;;;;;;10.93;71.15;98566.44;5072508;28;20079;-62
2023/04/12 07:55:47;;;;;;;0.65;0.40;;;;;;;11.04;71.45;98558.31;5072873;28;20052;-61
2023/04/12 07:58:17;;;;;;;0.68;0.40;;;;;;;11.04;70.91;98558.31;5068324;28;20060;-62
2023/04/12 08:00:44;;;;;;;0.98;0.57;;;;;;;11.08;70.31;98545.28;5073378;28;20049;-62
2023/04/12 08:03:13;;;;;;;1.85;0.60;;;;;;;11.13;71.07;98552.56;5069484;28;20060;-62
2023/04/12 08:05:40;;;;;;;0.90;0.50;;;;;;;11.25;70.44;98554.38;5073100;28;20403;-62
2023/04/12 08:08:09;;;;;;;1.15;0.50;;;;;;;11.41;68.97;98551.53;5073023;28;20048;-62
2023/04/12 08:10:37;;;;;;;0.50;0.32;;;;;;;11.77;68.75;98531.53;5063281;28;20045;-61
2023/04/12 08:13:04;;;;;;;0.90;0.50;;;;;;;12.39;67.00;98522.25;5066948;28;20056;-62
2023/04/12 08:15:33;;;;;;;1.00;0.50;;;;;;;12.96;63.76;98517.50;5072795;28;20052;-61
2023/04/12 08:18:01;;;;;;;0.40;0.30;;;;;;;13.27;63.43;98528.66;5072419;28;20418;-61
2023/04/12 08:20:30;;;;;;;0.55;0.40;;;;;;;13.66;63.18;98512.38;5072357;28;20056;-61
2023/04/12 08:22:57;;;;;;;1.25;0.50;;;;;;;14.30;59.99;98519.78;5067015;28;20048;-61
2023/04/12 08:25:25;;;;;;;1.02;0.47;;;;;;;14.09;60.63;98514.78;5069230;28;20059;-62
2023/04/12 08:27:52;;;;;;;0.68;0.38;;;;;;;13.97;60.81;98513.09;5055364;28;20514;-61
2023/04/12 08:30:25;;;;;;;1.38;0.45;;;;;;;14.01;61.24;98531.53;5055639;28;20044;-62
2023/04/12 08:32:54;;;;;;;1.35;0.50;;;;;;;13.57;60.72;98528.69;5067608;28;20056;-62
2023/04/12 08:35:21;;;;;;;0.88;0.40;;;;;;;13.25;61.38;98531.88;5069298;28;20060;-62
2023/04/12 08:37:49;;;;;;;1.05;0.40;;;;;;;12.78;62.70;98534.00;5072622;28;20060;-62
2023/04/12 08:40:16;;;;;;;0.68;0.30;;;;;;;12.84;62.67;98531.69;5061537;28;20045;-62
2023/04/12 08:42:43;;;;;;;0.60;0.35;;;;;;;12.46;63.59;98527.94;5052728;28;20053;-62
2023/04/12 08:45:12;;;;;;;3.65;0.50;;;;;;;12.30;65.90;98530.88;5050768;28;20053;-62
2023/04/12 08:47:41;;;;;;;1.08;0.50;;;;;;;12.19;67.75;98532.69;5051774;28;20052;-59
2023/04/12 08:50:12;;;;;;;1.60;0.60;;;;;;;11.63;70.07;98530.44;5055802;28;20053;-60
2023/04/12 08:52:40;;;;;;;3.38;0.55;;;;;;;11.40;72.29;98535.97;5071341;28;20415;-60
2023/04/12 08:55:09;;;;;;;1.60;0.70;;;;;;;11.36;75.45;98519.19;5067157;28;20053;-60
2023/04/12 08:57:38;;;;;;;1.35;0.80;;;;;;;11.26;75.86;98531.72;5056491;28;20052;-60
2023/04/12 09:00:10;;;;;;;1.48;0.90;;;;;;;11.16;77.92;98513.59;5072592;28;20052;-59
2023/04/12 09:02:37;;;;;;;1.10;0.50;;;;;;;11.29;77.78;98508.69;5071304;28;20513;-59
2023/04/12 09:05:05;;;;;;;1.10;0.60;;;;;;;11.45;76.48;98493.88;5072497;28;20394;-59
2023/04/12 09:07:34;;;;;;;0.98;0.60;;;;;;;11.49;75.62;98508.69;5071836;28;20056;-59
2023/04/12 09:10:02;;;;;;;4.72;0.63;;;;;;;11.70;76.24;98497.13;5070191;28;20063;-59
2023/04/12 09:12:30;;;;;;;0.88;0.40;;;;;;;11.80;75.55;98490.94;5070220;28;20052;-59
2023/04/12 09:15:09;;;;;;;1.10;0.60;;;;;;;12.00;74.14;98494.50;5067450;28;20060;-59
2023/04/12 09:17:37;;;;;;;1.33;0.63;;;;;;;11.86;73.18;98488.63;5051611;28;20045;-59
2023/04/12 09:20:23;;;;;;;0.77;0.45;;;;;;;12.19;73.16;98479.66;5052285;28;20060;-59
2023/04/12 09:22:54;;;;;;;0.55;0.30;;;;;;;12.05;72.32;98477.44;5052210;28;20053;-58
2023/04/12 09:25:37;;;;;;;0.65;0.35;;;;;;;11.96;72.35;98500.00;5058494;28;20044;-58
2023/04/12 09:28:17;;;;;;;1.38;0.55;;;;;;;11.90;72.13;98487.53;5068006;28;20053;-58
2023/04/12 09:30:50;;;;;;;1.88;0.63;;;;;;;11.97;72.43;98487.69;5072225;28;20411;-60
2023/04/12 09:33:18;;;;;;;1.00;0.50;;;;;;;12.00;71.65;98483.34;5063785;28;20053;-59
2023/04/12 09:35:46;;;;;;;0.73;0.40;;;;;;;12.16;71.12;98469.25;5052951;28;20049;-60
2023/04/12 09:38:15;;;;;;;1.00;0.50;;;;;;;12.18;70.95;98478.06;5051682;28;20060;-60
2023/04/12 09:40:42;;;;;;;0.90;0.50;;;;;;;12.44;70.79;98477.25;5054926;28;20052;-60
2023/04/12 09:43:09;;;;;;;0.93;0.50;;;;;;;12.44;71.31;98474.47;5053661;28;20061;-59
2023/04/12 09:45:38;;;;;;;1.17;0.52;;;;;;;12.44;71.92;98476.47;5071134;28;20388;-59
2023/04/12 09:48:07;;;;;;;1.00;0.47;;;;;;;12.41;71.59;98468.81;5070327;28;20467;-60
2023/04/12 09:50:34;;;;;;;1.20;0.60;;;;;;;12.32;71.95;98480.25;5071998;28;20485;-60
2023/04/12 09:53:03;;;;;;;0.70;0.40;;;;;;;12.40;72.37;98473.59;5070911;28;20061;-59
2023/04/12 09:55:32;;;;;;;1.00;0.50;;;;;;;12.55;72.41;98467.03;5066963;28;20482;-59
2023/04/12 09:58:04;;;;;;;1.10;0.60;;;;;;;13.02;71.26;98456.50;5073831;28;20059;-59
2023/04/12 10:00:33;;;;;;;0.80;0.40;;;;;;;13.31;70.04;98474.47;5057494;28;20058;-60
2023/04/12 10:03:01;;;;;;;0.80;0.50;;;;;;;12.93;69.52;98473.53;5061063;28;20044;-60
2023/04/12 10:05:29;;;;;;;0.47;0.32;;;;;;;13.16;69.17;98459.44;5072440;28;20060;-60
2023/04/12 10:07:57;;;;;;;0.80;0.50;;;;;;;13.51;68.71;98463.88;5067391;28;20048;-59
2023/04/12 10:10:24;;;;;;;0.90;0.40;;;;;;;13.95;66.28;98462.31;5063292;28;20499;-60
2023/04/12 10:12:53;;;;;;;0.80;0.52;;;;;;;14.16;65.16;98472.88;5064570;28;20049;-60
2023/04/12 10:15:21;;;;;;;0.60;0.40;;;;;;;13.93;65.64;98459.88;5055269;28;20060;-60
2023/04/12 10:17:52;;;;;;;1.63;0.50;;;;;;;14.06;66.05;98465.97;5056208;28;20506;-60
2023/04/12 10:20:21;;;;;;;0.82;0.60;;;;;;;14.06;66.23;98459.59;5060970;28;20044;-59
2023/04/12 10:22:50;;;;;;;0.90;0.50;;;;;;;13.75;66.18;98462.53;5058066;28;20057;-59
2023/04/12 10:25:18;;;;;;;1.00;0.50;;;;;;;13.42;67.07;98473.75;5058724;28;20052;-59
2023/04/12 10:27:46;;;;;;;1.40;0.40;;;;;;;13.39;67.14;98453.75;5063414;28;20048;-59
2023/04/12 10:30:23;;;;;;;1.50;0.30;;;;;;;13.53;67.86;98455.09;5056856;28;20404;-60
2023/04/12 10:33:12;;;;;;;1.17;0.63;;;;;;;13.31;71.95;98446.50;5053285;28;20048;-60
2023/04/12 10:35:54;;;;;;;0.80;0.55;;;;;;;14.43;73.19;98439.88;5062588;28;20426;-60
2023/04/12 10:38:25;;;;;;;0.77;0.50;;;;;;;14.82;68.61;98433.69;5053527;28;20072;-60
2023/04/12 10:41:15;;;;;;;0.60;0.50;;;;;;;18.53;60.60;98443.69;5058022;28;20393;-59
2023/04/12 10:43:43;;;;;;;1.23;0.47;;;;;;;21.22;50.92;98424.69;5060651;28;20061;-60
2023/04/12 10:46:49;;;;;;;0.85;0.55;;;;;;;22.89;44.30;98421.88;5057042;28;20049;-61
2023/04/12 10:49:17;;;;;;;0.77;0.40;;;;;;;22.88;42.38;98416.63;5038319;28;20045;-60
2023/04/12 10:52:15;;;;;;;0.98;0.38;;;;;;;20.89;46.19;98435.84;5058667;28;20052;-60
2023/04/12 10:54:43;;;;;;;0.50;0.37;;;;;;;22.19;43.22;98406.25;5057900;28;20060;-60
2023/04/12 10:57:42;;;;;;;0.82;0.40;;;;;;;21.76;43.35;98415.03;5055752;28;20048;-59
2023/04/12 11:00:10;;;;;;;0.35;0.28;;;;;;;20.96;44.57;98412.31;5055527;28;20057;-60
2023/04/12 11:03:10;;;;;;;3.60;0.65;;;;;;;19.45;48.43;98426.13;5061296;28;20491;-60
2023/04/12 11:06:00;;;;;;;0.93;0.43;;;;;;;18.18;50.12;98411.78;5061199;28;20395;-60
2023/04/12 11:08:29;;;;;;;0.90;0.40;;;;;;;18.05;51.55;98422.78;5056874;28;20383;-58
2023/04/12 11:11:02;;;;;;;0.60;0.40;;;;;;;17.51;53.99;98432.81;5054125;28;20487;-58
2023/04/12 11:13:30;;;;;;;0.60;0.30;;;;;;;16.72;55.63;98424.69;5056788;28;20517;-58
2023/04/12 11:16:01;;;;;;;1.02;0.40;;;;;;;16.59;56.31;98427.16;5071377;28;20057;-58
2023/04/12 11:18:29;;;;;;;0.70;0.30;;;;;;;16.07;56.12;98427.59;5057769;28;20049;-59
2023/04/12 11:20:58;;;;;;;0.98;0.52;;;;;;;15.91;58.67;98441.25;5053402;28;20073;-58
2023/04/12 11:23:25;;;;;;;0.95;0.40;;;;;;;15.84;57.88;98433.63;5056142;28;20048;-59
2023/04/12 11:25:53;;;;;;;1.00;0.45;;;;;;;15.73;59.22;98442.03;5055159;28;20056;-60
2023/04/12 11:28:22;;;;;;;1.00;0.50;;;;;;;15.53;59.63;98446.38;5051227;28;20045;-59
2023/04/12 11:30:51;;;;;;;1.10;0.70;;;;;;;15.58;61.12;98437.53;5058249;28;20045;-59
2023/04/12 11:33:34;;;;;;;1.80;0.98;;;;;;;15.87;60.97;98434.81;5056393;28;20055;-59
2023/04/12 11:36:06;;;;;;;1.48;0.73;;;;;;;16.09;60.54;98435.63;5073363;28;20395;-59
2023/04/12 11:38:34;;;;;;;0.95;0.50;;;;;;;15.84;59.55;98433.63;5055763;28;20049;-59
2023/04/12 11:41:02;;;;;;;1.60;0.50;;;;;;;15.83;59.01;98434.81;5058560;28;20051;-59
2023/04/12 11:43:29;;;;;;;1.38;0.70;;;;;;;15.87;58.50;98429.19;5065082;28;20059;-60
2023/04/12 11:45:58;;;;;;;1.63;0.60;;;;;;;15.59;57.86;98422.34;5061359;28;20063;-59
2023/04/12 11:48:26;;;;;;;1.27;0.68;;;;;;;15.63;58.62;98426.75;5056645;28;20048;-59